Terminal Aerodrome Forecast
Issued by NWS Cleveland, OH

Home | Current Version | Previous Version | Text Only | Print | Product List | Glossary On
Versions: 1 2 3 4 5 6 7 8 9 10 11 12 13 14 15
000
FTUS41 KCLE 071213 AAA
TAFTOL
TAF AMD
KTOL 071213Z 0712/0812 21011KT P6SM SCT018 OVC250
      TEMPO 0712/0714 BKN018
     FM071400 22012KT P6SM VCSH SCT020 BKN040 OVC080
      TEMPO 0714/0716 3SM -TSRA BR SCT015CB BKN020 OVC040
     FM071600 23010G20KT 5SM -SHRA BR VCTS BKN020 OVC040CB
     FM072000 31010KT 3SM -SHRA BR OVC007
     FM072300 36008KT P6SM VCSH SCT007 BKN010 OVC030
     FM080500 03005KT 6SM BR OVC020=

USA.gov is the U.S. government's official web portal to all federal, state and local government web resources and services.